createdAt,value
2018-03-19T00:01:14.745Z,61.87
2018-03-19T00:03:44.565Z,61.86
2018-03-19T00:06:14.351Z,61.72
2018-03-19T00:08:44.137Z,61.90
2018-03-19T00:11:14.014Z,61.94
2018-03-19T00:13:43.809Z,61.92
2018-03-19T00:16:13.621Z,61.72
2018-03-19T00:18:43.421Z,61.47
2018-03-19T00:21:13.226Z,61.76
2018-03-19T00:23:43.027Z,62.21
2018-03-19T00:26:12.861Z,62.36
2018-03-19T00:28:42.705Z,62.28
2018-03-19T00:31:12.533Z,62.08
2018-03-19T00:33:42.336Z,61.78
2018-03-19T00:36:12.309Z,62.19
2018-03-19T00:38:42.210Z,61.67
2018-03-19T00:41:12.010Z,61.68
2018-03-19T00:43:41.843Z,61.90
2018-03-19T00:46:11.641Z,61.84
2018-03-19T00:48:41.486Z,62.21
2018-03-19T00:51:11.277Z,62.51
2018-03-19T00:53:41.130Z,62.26
2018-03-19T00:56:10.930Z,63.05
2018-03-19T00:58:40.724Z,62.54
2018-03-19T01:01:10.524Z,62.44
2018-03-19T01:03:40.321Z,62.90
2018-03-19T01:06:10.182Z,62.30
2018-03-19T01:08:40.000Z,62.93
2018-03-19T01:11:09.810Z,62.61
2018-03-19T01:13:39.622Z,62.90
2018-03-19T01:16:09.444Z,62.90
2018-03-19T01:18:39.246Z,62.71
2018-03-19T01:21:09.048Z,62.63
2018-03-19T01:23:38.870Z,62.03
2018-03-19T01:26:08.703Z,62.51
2018-03-19T01:28:38.510Z,62.75
2018-03-19T01:31:08.376Z,61.86
2018-03-19T01:33:38.211Z,62.00
2018-03-19T01:36:08.022Z,62.43
2018-03-19T01:38:37.838Z,62.25
2018-03-19T01:41:07.707Z,62.42
2018-03-19T01:43:37.639Z,62.26
2018-03-19T01:46:07.447Z,62.47
2018-03-19T01:48:37.042Z,62.58
2018-03-19T01:51:06.900Z,62.48
2018-03-19T01:53:36.915Z,62.34
2018-03-19T01:56:06.823Z,62.65
2018-03-19T01:58:36.645Z,63.14
2018-03-19T02:01:06.440Z,63.06
2018-03-19T02:03:36.246Z,62.22
2018-03-19T02:06:05.764Z,62.73
2018-03-19T02:08:35.546Z,62.88
2018-03-19T02:11:05.374Z,63.25
2018-03-19T02:13:35.191Z,63.04
2018-03-19T02:16:05.022Z,63.18
2018-03-19T02:18:34.595Z,63.01
2018-03-19T02:21:04.405Z,63.11
2018-03-19T02:23:34.216Z,63.26
2018-03-19T02:26:04.081Z,62.61
2018-03-19T02:28:33.898Z,63.76
2018-03-19T02:31:03.782Z,63.58
2018-03-19T02:33:33.585Z,63.91
2018-03-19T02:36:03.401Z,63.14
2018-03-19T02:38:33.224Z,63.78
2018-03-19T02:41:02.746Z,63.19
2018-03-19T02:43:32.602Z,63.77
2018-03-19T02:46:02.452Z,63.16
2018-03-19T02:48:32.247Z,63.30
2018-03-19T02:51:02.108Z,63.70
2018-03-19T02:53:31.917Z,63.68
2018-03-19T02:56:01.740Z,63.73
2018-03-19T02:58:31.621Z,63.10
2018-03-19T03:01:01.430Z,63.58
2018-03-19T03:03:31.251Z,63.00
2018-03-19T03:06:01.159Z,63.60
2018-03-19T03:08:30.952Z,63.64
2018-03-19T03:11:00.794Z,64.20
2018-03-19T03:13:30.601Z,63.51
2018-03-19T03:16:00.426Z,64.64
2018-03-19T03:18:30.224Z,64.60
2018-03-19T03:21:00.039Z,64.60
2018-03-19T03:23:29.882Z,64.76
2018-03-19T03:26:03.480Z,64.16
2018-03-19T03:28:33.042Z,63.71
2018-03-19T03:31:02.851Z,63.02
2018-03-19T03:33:33.137Z,64.38
2018-03-19T03:36:02.972Z,63.69
2018-03-19T03:38:32.781Z,63.47
2018-03-19T03:41:02.605Z,63.55
2018-03-19T03:43:32.440Z,63.15
2018-03-19T03:46:02.242Z,64.02
2018-03-19T03:48:32.033Z,63.97
2018-03-19T03:51:01.861Z,63.33
2018-03-19T03:53:31.671Z,63.30
2018-03-19T03:56:01.491Z,63.54
2018-03-19T03:58:31.349Z,63.32
2018-03-19T04:01:01.154Z,64.01
2018-03-19T04:03:30.976Z,63.54
2018-03-19T04:06:00.788Z,63.59
2018-03-19T04:08:30.586Z,62.96
2018-03-19T04:11:00.425Z,62.98
2018-03-19T04:13:30.242Z,62.95
2018-03-19T04:16:00.154Z,63.37
2018-03-19T04:18:29.993Z,63.37
2018-03-19T04:20:59.852Z,63.21
2018-03-19T04:23:29.672Z,63.25
2018-03-19T04:25:59.945Z,64.05
2018-03-19T04:28:29.761Z,63.23
2018-03-19T04:30:59.575Z,63.47
2018-03-19T04:33:29.380Z,63.69
2018-03-19T04:35:59.190Z,63.13
2018-03-19T04:38:29.051Z,64.08
2018-03-19T04:40:58.863Z,64.38
2018-03-19T04:43:28.689Z,63.94
2018-03-19T04:45:58.494Z,64.62
2018-03-19T04:48:28.306Z,64.54
2018-03-19T04:50:58.107Z,64.62
2018-03-19T04:53:27.911Z,64.09
2018-03-19T04:55:57.768Z,65.00
2018-03-19T04:58:28.045Z,65.14
2018-03-19T05:00:57.856Z,66.72
2018-03-19T05:03:27.740Z,67.23
2018-03-19T05:05:57.597Z,66.57
2018-03-19T05:08:27.496Z,66.82
2018-03-19T05:11:01.031Z,66.78
2018-03-19T05:13:30.551Z,67.14
2018-03-19T05:16:00.331Z,66.30
2018-03-19T05:18:30.229Z,66.83
2018-03-19T05:21:00.069Z,67.62
2018-03-19T05:23:29.862Z,68.04
2018-03-19T05:25:59.687Z,67.96
2018-03-19T05:28:29.509Z,67.79
2018-03-19T05:30:59.420Z,66.82
2018-03-19T05:33:29.275Z,67.06
2018-03-19T05:35:59.151Z,67.20
2018-03-19T05:38:28.958Z,66.35
2018-03-19T05:40:58.773Z,66.69
2018-03-19T05:43:28.790Z,67.50
2018-03-19T05:45:58.562Z,67.75
2018-03-19T05:48:28.136Z,67.85
2018-03-19T05:50:58.030Z,68.08
2018-03-19T05:53:27.964Z,67.96
2018-03-19T05:55:57.805Z,67.58
2018-03-19T05:58:27.603Z,67.68
2018-03-19T06:00:57.510Z,67.26
2018-03-19T06:03:27.310Z,67.33
2018-03-19T06:05:57.209Z,67.01
2018-03-19T06:08:27.107Z,67.80
2018-03-19T06:10:56.955Z,67.35
2018-03-19T06:13:26.760Z,67.49
2018-03-19T06:16:00.695Z,67.36
2018-03-19T06:18:31.029Z,67.40
2018-03-19T06:21:00.829Z,67.26
2018-03-19T06:23:30.839Z,67.57
2018-03-19T06:26:00.672Z,67.86
2018-03-19T06:28:30.543Z,68.21
2018-03-19T06:31:00.385Z,67.99
2018-03-19T06:33:30.841Z,68.30
2018-03-19T06:36:02.659Z,68.59
2018-03-19T06:38:34.296Z,67.96
2018-03-19T06:41:04.213Z,67.61
2018-03-19T06:43:34.046Z,67.29
2018-03-19T06:46:04.469Z,67.68
2018-03-19T06:48:34.398Z,67.16
2018-03-19T06:51:04.247Z,66.22
2018-03-19T06:53:34.148Z,66.71
2018-03-19T06:56:03.863Z,67.29
2018-03-19T06:58:33.721Z,67.32
2018-03-19T07:01:03.606Z,67.03
2018-03-19T07:03:33.491Z,66.91
2018-03-19T07:08:31.939Z,68.08
2018-03-19T07:11:01.747Z,66.61
2018-03-19T07:13:31.579Z,66.26
2018-03-19T07:16:01.434Z,65.85
2018-03-19T07:18:31.258Z,66.98
2018-03-19T07:21:01.179Z,65.71
2018-03-19T07:23:31.034Z,66.53
2018-03-19T07:26:00.850Z,66.33
2018-03-19T07:28:30.655Z,66.23
2018-03-19T07:31:00.219Z,64.72
2018-03-19T07:33:29.877Z,65.32
2018-03-19T07:35:59.681Z,68.71
2018-03-19T07:38:29.705Z,63.64
2018-03-19T07:40:59.540Z,63.67
2018-03-19T07:43:29.535Z,63.87
2018-03-19T07:45:59.388Z,63.70
2018-03-19T07:48:29.607Z,63.09
2018-03-19T07:50:59.780Z,62.54
2018-03-19T07:53:29.585Z,61.82
2018-03-19T07:55:59.376Z,62.13
2018-03-19T07:58:29.227Z,63.20
2018-03-19T08:00:59.064Z,60.27
2018-03-19T08:03:28.871Z,63.22
2018-03-19T08:05:58.682Z,60.32
2018-03-19T08:08:28.741Z,59.60
2018-03-19T08:10:58.966Z,61.54
2018-03-19T08:13:28.799Z,63.10
2018-03-19T08:15:58.702Z,63.39
2018-03-19T08:18:28.573Z,63.60
2018-03-19T08:20:58.398Z,60.34
2018-03-19T08:23:28.211Z,58.62
2018-03-19T08:25:58.077Z,59.74
2018-03-19T08:28:28.078Z,59.92
2018-03-19T08:30:57.909Z,59.64
2018-03-19T08:33:27.729Z,58.55
2018-03-19T08:35:57.553Z,58.25
2018-03-19T08:38:27.374Z,57.38
2018-03-19T08:40:57.186Z,57.44
2018-03-19T08:43:27.012Z,54.58
2018-03-19T08:45:56.817Z,52.90
2018-03-19T08:48:30.775Z,53.89
2018-03-19T08:51:00.752Z,54.59
2018-03-19T08:53:30.588Z,54.80
2018-03-19T08:56:00.408Z,54.02
2018-03-19T08:58:30.755Z,55.27
2018-03-19T09:01:00.560Z,54.67
2018-03-19T09:03:30.429Z,54.33
2018-03-19T09:06:00.253Z,55.53
2018-03-19T09:08:30.151Z,58.35
2018-03-19T09:10:59.988Z,57.91
2018-03-19T09:13:29.816Z,57.90
2018-03-19T09:16:03.704Z,56.75
2018-03-19T09:18:33.588Z,56.22
2018-03-19T09:21:03.405Z,54.79
2018-03-19T09:23:32.800Z,56.17
2018-03-19T09:26:02.598Z,53.17
2018-03-19T09:28:32.280Z,53.46
2018-03-19T09:31:02.132Z,55.59
2018-03-19T09:33:32.192Z,54.84
2018-03-19T09:36:02.016Z,57.30
2018-03-19T09:38:31.920Z,54.77
2018-03-19T09:41:01.717Z,57.45
2018-03-19T09:43:31.561Z,54.21
2018-03-19T09:46:02.189Z,53.56
2018-03-19T09:48:32.022Z,53.22
2018-03-19T09:51:01.750Z,55.12
2018-03-19T09:53:32.280Z,54.32
2018-03-19T09:56:02.108Z,54.66
2018-03-19T09:58:31.937Z,54.84
2018-03-19T10:01:01.742Z,52.18
2018-03-19T10:03:31.562Z,49.17
2018-03-19T10:06:01.469Z,50.93
2018-03-19T10:08:31.310Z,50.45
2018-03-19T10:11:01.154Z,49.55
2018-03-19T10:13:31.035Z,50.46
2018-03-19T10:16:00.845Z,52.32
2018-03-19T10:18:30.693Z,51.00
2018-03-19T10:21:00.534Z,52.20
2018-03-19T10:23:30.324Z,51.16
2018-03-19T10:26:00.128Z,49.74
2018-03-19T10:28:29.991Z,48.85
2018-03-19T10:31:00.590Z,48.40
2018-03-19T10:33:30.364Z,48.27
2018-03-19T10:36:00.223Z,47.29
2018-03-19T10:38:30.333Z,46.10
2018-03-19T10:41:00.183Z,46.15
2018-03-19T10:43:30.052Z,45.74
2018-03-19T10:45:59.910Z,48.76
2018-03-19T10:48:29.812Z,49.05
2018-03-19T10:50:59.613Z,50.84
2018-03-19T10:53:29.448Z,48.76
2018-03-19T10:55:59.304Z,46.89
2018-03-19T10:58:29.137Z,48.21
2018-03-19T11:01:04.462Z,47.65
2018-03-19T11:03:34.128Z,47.73
2018-03-19T11:09:19.059Z,45.47
2018-03-19T11:11:48.875Z,47.35
2018-03-19T11:14:18.904Z,47.82
2018-03-19T11:16:48.750Z,48.35
2018-03-19T11:19:18.599Z,47.33
2018-03-19T11:21:48.381Z,45.15
2018-03-19T11:24:18.223Z,44.92
2018-03-19T11:26:48.080Z,46.59
2018-03-19T11:29:17.932Z,46.02
2018-03-19T11:31:51.726Z,45.84
2018-03-19T11:34:21.524Z,46.01
2018-03-19T11:36:55.523Z,45.03
2018-03-19T11:39:25.401Z,44.82
2018-03-19T11:41:55.219Z,43.97
2018-03-19T11:44:25.041Z,41.75
2018-03-19T11:46:54.915Z,39.92
2018-03-19T11:49:24.705Z,41.46
2018-03-19T11:51:54.566Z,42.83
2018-03-19T11:54:28.506Z,46.20
2018-03-19T11:56:58.059Z,47.30
2018-03-19T11:59:27.687Z,45.65
2018-03-19T12:01:57.481Z,43.99
2018-03-19T12:04:27.337Z,44.56
2018-03-19T12:06:57.154Z,43.62
2018-03-19T12:09:27.076Z,42.86
2018-03-19T12:11:56.880Z,42.31
2018-03-19T12:14:26.703Z,43.78
2018-03-19T12:16:56.596Z,43.30
2018-03-19T12:19:26.274Z,44.01
2018-03-19T12:21:55.738Z,45.52
2018-03-19T12:24:25.588Z,44.90
2018-03-19T12:26:55.597Z,44.07
2018-03-19T12:29:25.489Z,48.82
2018-03-19T12:31:55.332Z,45.62
2018-03-19T12:34:25.143Z,45.92
2018-03-19T12:36:54.956Z,46.27
2018-03-19T12:39:24.825Z,44.96
2018-03-19T12:41:54.803Z,44.36
2018-03-19T12:44:24.628Z,46.50
2018-03-19T12:46:54.452Z,45.33
2018-03-19T12:49:24.264Z,44.76
2018-03-19T12:51:54.070Z,42.85
2018-03-19T12:54:23.894Z,42.96
2018-03-19T12:56:53.744Z,43.08
2018-03-19T12:59:23.924Z,44.62
2018-03-19T13:01:53.862Z,42.83
2018-03-19T13:04:23.713Z,44.33
2018-03-19T13:06:53.518Z,45.18
2018-03-19T13:09:23.210Z,44.73
2018-03-19T13:11:53.167Z,44.81
2018-03-19T13:14:23.595Z,45.01
2018-03-19T13:16:53.405Z,45.12
2018-03-19T13:19:23.208Z,43.66
2018-03-19T13:21:53.023Z,42.78
2018-03-19T13:24:22.975Z,46.04
2018-03-19T13:26:53.004Z,44.62
2018-03-19T13:29:22.862Z,43.06
2018-03-19T13:31:52.711Z,43.42
2018-03-19T13:34:23.585Z,44.73
2018-03-19T13:36:53.397Z,44.43
2018-03-19T13:39:23.631Z,45.18
2018-03-19T13:41:53.508Z,45.37
2018-03-19T13:44:23.298Z,46.06
2018-03-19T13:46:53.127Z,45.70
2018-03-19T13:49:22.752Z,46.83
2018-03-19T13:51:53.485Z,46.52
2018-03-19T13:54:23.326Z,46.87
2018-03-19T13:56:53.136Z,47.22
2018-03-19T13:59:23.076Z,47.71
2018-03-19T14:01:53.037Z,48.83
2018-03-19T14:04:22.886Z,50.70
2018-03-19T14:06:53.037Z,50.34
2018-03-19T14:09:22.873Z,50.72
2018-03-19T14:11:52.893Z,50.44
2018-03-19T14:14:23.104Z,51.72
2018-03-19T14:16:53.430Z,50.70
2018-03-19T14:19:23.257Z,50.88
2018-03-19T14:21:53.189Z,49.83
2018-03-19T14:24:23.049Z,50.44
2018-03-19T14:26:53.019Z,51.49
2018-03-19T14:29:23.563Z,50.08
2018-03-19T14:31:53.390Z,50.12
2018-03-19T14:34:23.212Z,49.02
2018-03-19T14:36:53.075Z,48.62
2018-03-19T14:39:22.933Z,48.29
2018-03-19T14:41:53.114Z,49.63
2018-03-19T14:44:23.068Z,51.72
2018-03-19T14:46:52.935Z,52.73
2018-03-19T14:49:22.771Z,52.03
2018-03-19T14:51:52.596Z,51.08
2018-03-19T14:54:22.862Z,52.18
2018-03-19T14:56:52.764Z,51.36
2018-03-19T14:59:22.454Z,51.53
2018-03-19T15:01:56.184Z,51.78
2018-03-19T15:04:25.788Z,52.20
2018-03-19T15:06:55.634Z,53.27
2018-03-19T15:09:25.497Z,53.62
2018-03-19T15:11:55.325Z,52.87
2018-03-19T15:14:25.149Z,53.22
2018-03-19T15:16:54.973Z,53.38
2018-03-19T15:19:24.527Z,53.62
2018-03-19T15:21:54.374Z,54.33
2018-03-19T15:24:24.708Z,54.03
2018-03-19T15:26:56.148Z,53.81
2018-03-19T15:29:25.977Z,53.92
2018-03-19T15:31:55.804Z,54.31
2018-03-19T15:34:25.708Z,54.66
2018-03-19T15:36:55.712Z,55.18
2018-03-19T15:39:25.513Z,54.83
2018-03-19T15:41:55.354Z,55.42
2018-03-19T15:44:25.774Z,56.44
2018-03-19T15:46:55.588Z,56.92
2018-03-19T15:49:25.462Z,56.53
2018-03-19T15:51:55.434Z,57.24
2018-03-19T15:54:25.261Z,58.31
2018-03-19T15:56:55.109Z,57.88
2018-03-19T15:59:25.501Z,58.40
2018-03-19T16:01:55.489Z,57.99
2018-03-19T16:04:25.363Z,57.59
2018-03-19T16:06:55.008Z,57.61
2018-03-19T16:09:24.907Z,58.51
2018-03-19T16:11:54.712Z,58.48
2018-03-19T16:14:25.029Z,58.40
2018-03-19T16:16:55.273Z,58.88
2018-03-19T16:19:26.788Z,58.51
2018-03-19T16:21:56.753Z,58.02
2018-03-19T16:24:26.643Z,58.25
2018-03-19T16:26:56.498Z,58.73
2018-03-19T16:29:26.375Z,58.71
2018-03-19T16:31:56.179Z,59.37
2018-03-19T16:34:25.980Z,60.52
2018-03-19T16:36:55.866Z,61.38
2018-03-19T16:39:26.022Z,62.05
2018-03-19T16:41:55.862Z,62.93
2018-03-19T16:44:25.741Z,63.86
2018-03-19T16:46:55.814Z,63.40
2018-03-19T16:49:25.706Z,63.64
2018-03-19T16:51:55.558Z,64.95
2018-03-19T16:54:25.362Z,63.31
2018-03-19T16:56:55.200Z,64.19
2018-03-19T16:59:25.222Z,62.78
2018-03-19T17:01:55.016Z,61.04
2018-03-19T17:04:24.824Z,61.56
2018-03-19T17:06:54.645Z,62.43
2018-03-19T17:09:25.095Z,62.52
2018-03-19T17:11:54.720Z,62.27
2018-03-19T17:14:24.539Z,62.30
2018-03-19T17:16:54.420Z,62.89
2018-03-19T17:19:24.320Z,63.35
2018-03-19T17:21:54.154Z,63.07
2018-03-19T17:24:23.980Z,61.78
2018-03-19T17:26:53.866Z,62.74
2018-03-19T17:29:23.673Z,64.12
2018-03-19T17:31:53.361Z,66.64
2018-03-19T17:34:23.211Z,68.44
2018-03-19T17:36:53.014Z,69.31
2018-03-19T17:39:22.848Z,66.27
2018-03-19T17:41:52.761Z,65.95
2018-03-19T17:44:22.644Z,67.29
2018-03-19T17:46:52.474Z,66.00
2018-03-19T17:49:22.326Z,65.92
2018-03-19T17:51:52.144Z,66.05
2018-03-19T17:54:21.977Z,66.14
2018-03-19T17:56:51.833Z,66.37
2018-03-19T17:59:21.644Z,66.76
2018-03-19T18:01:51.462Z,66.66
2018-03-19T18:04:21.349Z,67.64
2018-03-19T18:06:51.172Z,67.38
2018-03-19T18:09:21.115Z,67.81
2018-03-19T18:11:50.701Z,67.89
2018-03-19T18:14:20.560Z,68.13
2018-03-19T18:16:50.402Z,69.44
2018-03-19T18:19:20.332Z,68.82
2018-03-19T18:21:49.960Z,68.98
2018-03-19T18:24:19.797Z,69.76
2018-03-19T18:26:49.641Z,70.38
2018-03-19T18:29:19.475Z,71.11
2018-03-19T18:31:49.409Z,71.65
2018-03-19T18:34:19.358Z,71.51
2018-03-19T18:36:49.147Z,70.92
2018-03-19T18:39:19.328Z,71.74
2018-03-19T18:41:49.154Z,71.82
2018-03-19T18:44:18.968Z,71.55
2018-03-19T18:46:48.777Z,72.26
2018-03-19T18:49:18.584Z,73.20
2018-03-19T18:51:48.488Z,72.67
2018-03-19T18:54:18.328Z,73.50
2018-03-19T18:56:48.176Z,73.38
2018-03-19T18:59:18.012Z,71.60
2018-03-19T19:01:47.843Z,70.49
2018-03-19T19:04:17.707Z,71.79
2018-03-19T19:06:47.760Z,72.61
2018-03-19T19:09:17.585Z,71.88
2018-03-19T19:11:48.196Z,71.44
2018-03-19T19:14:18.034Z,72.26
2018-03-19T19:16:47.864Z,72.85
2018-03-19T19:19:17.676Z,72.26
2018-03-19T19:21:48.136Z,72.05
2018-03-19T19:24:17.706Z,71.90
2018-03-19T19:26:47.558Z,71.17
2018-03-19T19:29:17.216Z,71.20
2018-03-19T19:31:47.053Z,72.32
2018-03-19T19:34:17.098Z,73.60
2018-03-19T19:36:46.937Z,73.90
2018-03-19T19:39:16.750Z,73.65
2018-03-19T19:41:46.585Z,75.17
2018-03-19T19:44:16.383Z,76.01
2018-03-19T19:46:47.139Z,76.68
2018-03-19T19:49:16.972Z,77.24
2018-03-19T19:51:46.787Z,77.42
2018-03-19T19:54:16.625Z,77.55
2018-03-19T19:56:46.453Z,77.69
2018-03-19T19:59:16.611Z,77.80
2018-03-19T20:01:46.423Z,78.12
2018-03-19T20:04:16.293Z,78.08
2018-03-19T20:06:46.118Z,78.44
2018-03-19T20:09:16.086Z,78.24
2018-03-19T20:11:46.487Z,78.23
2018-03-19T20:14:16.321Z,78.48
2018-03-19T20:16:46.143Z,78.23
2018-03-19T20:19:15.944Z,78.31
2018-03-19T20:21:45.753Z,78.65
2018-03-19T20:24:15.572Z,79.75
2018-03-19T20:26:45.414Z,80.53
2018-03-19T20:29:15.288Z,81.23
2018-03-19T20:31:45.129Z,81.84
2018-03-19T20:34:14.946Z,82.18
2018-03-19T20:36:44.735Z,82.22
2018-03-19T20:39:14.546Z,82.68
2018-03-19T20:41:44.434Z,83.42
2018-03-19T20:44:14.310Z,83.33
2018-03-19T20:46:44.113Z,83.62
2018-03-19T20:49:13.930Z,83.78
2018-03-19T20:51:43.789Z,83.77
2018-03-19T20:54:13.630Z,83.49
2018-03-19T20:56:43.960Z,83.40
2018-03-19T20:59:14.708Z,82.43
2018-03-19T21:01:44.737Z,83.07
2018-03-19T21:04:14.556Z,82.91
2018-03-19T21:06:44.386Z,82.20
2018-03-19T21:09:14.543Z,81.72
2018-03-19T21:11:44.609Z,81.91
2018-03-19T21:14:14.444Z,81.70
2018-03-19T21:16:44.437Z,81.48
2018-03-19T21:19:14.293Z,81.77
2018-03-19T21:21:44.194Z,81.31
2018-03-19T21:24:13.990Z,81.47
2018-03-19T21:26:51.576Z,81.72
2018-03-19T21:29:21.931Z,82.36
2018-03-19T21:31:51.748Z,81.99
2018-03-19T21:34:21.610Z,82.22
2018-03-19T21:36:51.470Z,82.36
2018-03-19T21:39:21.292Z,82.49
2018-03-19T21:41:51.161Z,82.45
2018-03-19T21:44:20.986Z,82.89
2018-03-19T21:46:50.639Z,82.91
2018-03-19T21:49:20.431Z,83.25
2018-03-19T21:51:50.250Z,82.64
2018-03-19T21:54:26.674Z,82.70
2018-03-19T21:57:06.593Z,83.10
2018-03-19T21:59:36.852Z,82.89
2018-03-19T22:02:18.452Z,83.58
2018-03-19T22:04:52.333Z,83.39
2018-03-19T22:07:22.298Z,83.99
2018-03-19T22:09:52.300Z,84.21
2018-03-19T22:12:22.232Z,84.47
2018-03-19T22:14:52.112Z,84.85
2018-03-19T22:17:21.919Z,85.20
2018-03-19T22:19:51.820Z,85.36
2018-03-19T22:22:21.788Z,84.80
2018-03-19T22:24:51.589Z,84.88
2018-03-19T22:27:21.441Z,85.11
2018-03-19T22:29:51.353Z,85.18
2018-03-19T22:32:21.258Z,85.53
2018-03-19T22:34:51.056Z,85.92
2018-03-19T22:37:20.912Z,85.87
2018-03-19T22:39:50.730Z,85.87
2018-03-19T22:42:19.987Z,86.29
2018-03-19T22:44:49.608Z,86.35
2018-03-19T22:47:19.249Z,86.53
2018-03-19T22:49:49.070Z,86.34
2018-03-19T22:52:18.947Z,85.90
2018-03-19T22:54:49.434Z,86.10
2018-03-19T22:57:19.554Z,86.21
2018-03-19T22:59:49.357Z,85.72
2018-03-19T23:02:19.281Z,85.89
2018-03-19T23:05:00.410Z,86.18
2018-03-19T23:07:30.077Z,86.14
2018-03-19T23:09:59.962Z,85.91
2018-03-19T23:12:29.970Z,85.89
2018-03-19T23:14:59.976Z,85.30
2018-03-19T23:17:29.769Z,85.38
2018-03-19T23:19:59.609Z,85.11
2018-03-19T23:22:29.208Z,85.62
2018-03-19T23:24:59.015Z,85.31
2018-03-19T23:27:28.845Z,85.02
2018-03-19T23:29:58.650Z,84.88
2018-03-19T23:32:28.273Z,84.55
2018-03-19T23:34:58.092Z,84.82
2018-03-19T23:37:27.932Z,84.64
2018-03-19T23:39:57.804Z,85.03
2018-03-19T23:42:27.607Z,85.07
2018-03-19T23:44:57.505Z,85.25
2018-03-19T23:47:27.317Z,85.45
2018-03-19T23:49:57.159Z,85.53
2018-03-19T23:52:26.978Z,84.96
2018-03-19T23:54:56.793Z,84.30
2018-03-19T23:57:26.593Z,83.46
2018-03-19T23:59:56.409Z,83.03
